createdAt,value
2017-10-05T00:01:24.630Z,100083.45
2017-10-05T00:04:26.149Z,100088.02
2017-10-05T00:07:27.742Z,100080.81
2017-10-05T00:10:29.315Z,100078.33
2017-10-05T00:13:30.867Z,100074.82
2017-10-05T00:16:32.573Z,100032.22
2017-10-05T00:19:34.147Z,100037.91
2017-10-05T00:22:35.742Z,100033.92
2017-10-05T00:25:37.336Z,100039.45
2017-10-05T00:28:38.861Z,100034.37
2017-10-05T00:31:40.377Z,100026.65
2017-10-05T00:34:41.870Z,100022.62
2017-10-05T00:37:44.145Z,100020.38
2017-10-05T00:40:45.648Z,100005.45
2017-10-05T00:43:47.205Z,100003.63
2017-10-05T00:46:48.675Z,99983.45
2017-10-05T00:49:50.226Z,99987.23
2017-10-05T00:52:51.719Z,99977.43
2017-10-05T00:55:54.155Z,99982.64
2017-10-05T00:58:56.502Z,99957.91
2017-10-05T01:01:57.954Z,99937.70
2017-10-05T01:04:59.406Z,99924.58
2017-10-05T01:08:00.813Z,99927.02
2017-10-05T01:11:03.103Z,99907.76
2017-10-05T01:14:04.552Z,99902.22
2017-10-05T01:17:06.025Z,99895.91
2017-10-05T01:20:07.608Z,99891.91
2017-10-05T01:23:10.077Z,99880.69
2017-10-05T01:26:11.543Z,99870.47
2017-10-05T01:29:13.071Z,99851.30
2017-10-05T01:32:14.548Z,99852.47
2017-10-05T01:35:15.995Z,99827.48
2017-10-05T01:38:18.215Z,99813.55
2017-10-05T01:41:20.407Z,99808.36
2017-10-05T01:44:21.898Z,99797.32
2017-10-05T01:47:23.559Z,99789.22
2017-10-05T01:50:25.089Z,99778.47
2017-10-05T01:53:26.629Z,99768.80
2017-10-05T01:56:28.110Z,99777.27
2017-10-05T01:59:29.570Z,99771.09
2017-10-05T02:02:31.062Z,99765.16
2017-10-05T02:05:32.602Z,99769.30
2017-10-05T02:08:34.755Z,99756.22
2017-10-05T02:11:36.196Z,99736.20
2017-10-05T02:22:14.065Z,99715.64
2017-10-05T02:25:15.556Z,99713.91
2017-10-05T02:28:17.017Z,99694.39
2017-10-05T02:34:27.566Z,99673.73
2017-10-05T02:37:29.707Z,99667.43
2017-10-05T02:40:31.059Z,99654.38
2017-10-05T02:43:32.472Z,99644.00
2017-10-05T02:46:33.961Z,99644.30
2017-10-05T02:49:35.505Z,99638.88
2017-10-05T02:52:36.941Z,99636.77
2017-10-05T02:55:38.372Z,99632.47
2017-10-05T02:58:39.827Z,99623.64
2017-10-05T03:01:41.222Z,99621.26
2017-10-05T03:04:42.676Z,99599.63
2017-10-05T03:07:44.078Z,99597.16
2017-10-05T03:10:45.538Z,99592.19
2017-10-05T03:13:47.001Z,99576.39
2017-10-05T03:16:48.423Z,99585.45
2017-10-05T03:19:50.705Z,99585.89
2017-10-05T03:22:52.101Z,99581.41
2017-10-05T03:25:53.530Z,99564.98
2017-10-05T03:28:54.989Z,99556.90
2017-10-05T03:31:56.464Z,99541.38
2017-10-05T03:34:57.923Z,99544.53
2017-10-05T03:37:59.413Z,99542.74
2017-10-05T03:41:00.891Z,99546.70
2017-10-05T03:44:02.387Z,99542.88
2017-10-05T03:47:03.997Z,99527.20
2017-10-05T03:50:05.495Z,99520.62
2017-10-05T03:53:07.012Z,99501.80
2017-10-05T03:56:08.535Z,99506.75
2017-10-05T03:59:10.007Z,99491.92
2017-10-05T04:02:11.475Z,99490.23
2017-10-05T04:05:13.022Z,99486.61
2017-10-05T04:08:15.356Z,99463.66
2017-10-05T04:11:17.600Z,99458.88
2017-10-05T04:14:19.123Z,99466.83
2017-10-05T04:17:20.600Z,99461.70
2017-10-05T04:20:22.142Z,99439.01
2017-10-05T04:23:23.791Z,99448.70
2017-10-05T04:26:25.354Z,99449.27
2017-10-05T04:29:26.858Z,99436.85
2017-10-05T04:32:29.207Z,99446.40
2017-10-05T04:35:31.066Z,99426.36
2017-10-05T04:38:32.615Z,99430.13
2017-10-05T04:41:34.272Z,99408.55
2017-10-05T04:44:35.788Z,99387.00
2017-10-05T04:47:37.284Z,99393.61
2017-10-05T04:50:38.762Z,99369.33
2017-10-05T04:53:40.260Z,99367.41
2017-10-05T04:56:41.807Z,99364.93
2017-10-05T04:59:43.360Z,99365.92
2017-10-05T05:02:45.048Z,99380.48
2017-10-05T05:05:46.573Z,99372.20
2017-10-05T05:08:48.054Z,99350.94
2017-10-05T05:11:49.487Z,99333.02
2017-10-05T05:14:50.975Z,99328.77
2017-10-05T05:17:52.474Z,99335.95
2017-10-05T05:20:54.081Z,99322.45
2017-10-05T05:23:55.555Z,99310.70
2017-10-05T05:26:57.110Z,99313.34
2017-10-05T05:29:59.415Z,99309.49
2017-10-05T05:33:00.929Z,99294.69
2017-10-05T05:36:02.456Z,99272.50
2017-10-05T05:39:04.181Z,99276.70
2017-10-05T05:42:05.923Z,99257.03
2017-10-05T05:45:08.133Z,99256.91
2017-10-05T05:48:09.695Z,99259.33
2017-10-05T05:51:11.286Z,99253.58
2017-10-05T05:54:12.836Z,99241.00
2017-10-05T05:57:14.313Z,99242.11
2017-10-05T06:00:15.841Z,99248.13
2017-10-05T06:03:17.506Z,99227.56
2017-10-05T06:06:19.158Z,99226.63
2017-10-05T06:09:20.715Z,99222.17
2017-10-05T06:12:22.170Z,99232.39
2017-10-05T06:15:23.565Z,99201.28
2017-10-05T06:18:24.991Z,99215.36
2017-10-05T06:21:27.178Z,99209.91
2017-10-05T06:24:29.357Z,99194.43
2017-10-05T06:27:30.751Z,99187.00
2017-10-05T06:30:32.151Z,99175.52
2017-10-05T06:33:33.535Z,99192.27
2017-10-05T06:36:35.002Z,99174.33
2017-10-05T06:39:36.355Z,99192.41
2017-10-05T06:42:37.767Z,99174.16
2017-10-05T06:45:39.163Z,99167.07
2017-10-05T06:48:40.726Z,99173.08
2017-10-05T06:51:42.162Z,99175.61
2017-10-05T06:54:43.735Z,99157.80
2017-10-05T06:57:46.222Z,99166.64
2017-10-05T07:00:47.658Z,99167.64
2017-10-05T07:03:52.780Z,99164.47
2017-10-05T07:06:54.171Z,99162.33
2017-10-05T07:09:56.991Z,99133.62
2017-10-05T07:12:59.240Z,99151.01
2017-10-05T07:16:01.482Z,99151.48
2017-10-05T07:19:09.873Z,99138.09
2017-10-05T07:22:11.492Z,99147.09
2017-10-05T07:25:12.917Z,99130.40
2017-10-05T07:28:14.312Z,99129.17
2017-10-05T07:31:15.735Z,99124.41
2017-10-05T07:34:17.907Z,99114.02
2017-10-05T07:37:19.989Z,99125.88
2017-10-05T07:40:21.408Z,99136.44
2017-10-05T07:43:22.756Z,99116.24
2017-10-05T07:46:24.100Z,99130.38
2017-10-05T07:49:25.506Z,99105.45
2017-10-05T07:52:26.908Z,99115.38
2017-10-05T07:55:28.318Z,99083.69
2017-10-05T07:58:29.705Z,99108.27
2017-10-05T08:01:31.264Z,99098.38
2017-10-05T08:04:33.389Z,99087.87
2017-10-05T08:07:34.748Z,99107.98
2017-10-05T08:10:36.142Z,99106.78
2017-10-05T08:13:37.492Z,99085.39
2017-10-05T08:16:39.617Z,99093.23
2017-10-05T08:19:40.970Z,99105.83
2017-10-05T08:22:42.314Z,99095.84
2017-10-05T08:25:43.699Z,99077.61
2017-10-05T08:28:45.027Z,99095.83
2017-10-05T08:31:46.463Z,99063.22
2017-10-05T08:34:47.880Z,99078.25
2017-10-05T08:37:50.043Z,99064.23
2017-10-05T08:40:52.200Z,99076.74
2017-10-05T08:43:53.707Z,99077.40
2017-10-05T08:46:55.137Z,99078.67
2017-10-05T08:49:56.603Z,99078.34
2017-10-05T08:52:58.108Z,99071.73
2017-10-05T08:55:59.511Z,99078.13
2017-10-05T08:59:01.623Z,99076.11
2017-10-05T09:02:03.004Z,99059.53
2017-10-05T09:05:11.315Z,99059.36
2017-10-05T09:08:12.647Z,99052.89
2017-10-05T09:11:14.157Z,99070.20
2017-10-05T09:14:15.499Z,99039.80
2017-10-05T09:17:17.643Z,99045.18
2017-10-05T09:20:19.114Z,99044.55
2017-10-05T09:23:21.159Z,99051.03
2017-10-05T09:26:22.876Z,99067.38
2017-10-05T09:29:24.252Z,99048.00
2017-10-05T09:32:25.589Z,99042.58
2017-10-05T09:35:26.976Z,99066.66
2017-10-05T09:38:28.347Z,99059.22
2017-10-05T09:41:30.456Z,99064.80
2017-10-05T09:44:31.839Z,99060.91
2017-10-05T09:47:33.290Z,99044.09
2017-10-05T09:50:34.723Z,99066.95
2017-10-05T09:53:36.132Z,99060.33
2017-10-05T09:56:37.586Z,99064.84
2017-10-05T09:59:39.186Z,99044.30
2017-10-05T10:02:40.649Z,99057.59
2017-10-05T10:05:42.049Z,99052.30
2017-10-05T10:08:43.485Z,99063.28
2017-10-05T10:11:45.630Z,99080.27
2017-10-05T10:14:47.100Z,99098.56
2017-10-05T10:17:49.232Z,99100.79
2017-10-05T10:20:50.623Z,99116.15
2017-10-05T10:23:52.736Z,99164.13
2017-10-05T10:26:54.118Z,99178.89
2017-10-05T10:29:55.510Z,99198.33
2017-10-05T10:32:56.936Z,99209.64
2017-10-05T10:35:59.183Z,99198.31
2017-10-05T10:39:00.622Z,99212.27
2017-10-05T10:42:02.093Z,99232.73
2017-10-05T10:45:03.489Z,99236.27
2017-10-05T10:48:04.957Z,99238.47
2017-10-05T10:51:06.443Z,99233.80
2017-10-05T10:54:07.903Z,99250.19
2017-10-05T10:57:09.562Z,99269.52
2017-10-05T11:00:10.979Z,99277.56
2017-10-05T11:03:14.174Z,99279.48
2017-10-05T11:06:15.705Z,99306.11
2017-10-05T11:09:17.246Z,99329.22
2017-10-05T11:12:19.684Z,99326.81
2017-10-05T11:15:21.139Z,99330.57
2017-10-05T11:18:22.583Z,99342.10
2017-10-05T11:21:24.266Z,99338.30
2017-10-05T11:24:25.701Z,99344.98
2017-10-05T11:27:27.257Z,99346.88
2017-10-05T11:30:29.403Z,99354.81
2017-10-05T11:33:30.870Z,99377.52
2017-10-05T11:36:32.985Z,99382.74
2017-10-05T11:39:35.175Z,99379.25
2017-10-05T11:42:36.625Z,99376.31
2017-10-05T11:45:38.134Z,99410.30
2017-10-05T11:48:39.626Z,99453.63
2017-10-05T11:51:41.114Z,99436.49
2017-10-05T11:54:42.568Z,99435.91
2017-10-05T11:57:43.974Z,99460.69
2017-10-05T12:00:45.492Z,99460.36
2017-10-05T12:03:46.877Z,99462.86
2017-10-05T12:06:48.345Z,99465.52
2017-10-05T12:09:49.728Z,99467.64
2017-10-05T12:12:51.166Z,99480.73
2017-10-05T12:15:52.543Z,99499.75
2017-10-05T12:18:53.943Z,99506.13
2017-10-05T12:21:55.382Z,99491.03
2017-10-05T12:24:57.483Z,99510.94
2017-10-05T12:27:58.899Z,99504.52
2017-10-05T12:31:01.026Z,99524.32
2017-10-05T12:34:02.432Z,99530.80
2017-10-05T12:37:03.856Z,99523.55
2017-10-05T12:40:05.235Z,99527.13
2017-10-05T12:43:07.396Z,99543.98
2017-10-05T12:46:09.557Z,99537.45
2017-10-05T12:49:11.793Z,99552.04
2017-10-05T12:52:13.189Z,99557.52
2017-10-05T12:55:14.580Z,99563.87
2017-10-05T12:58:16.035Z,99568.03
2017-10-05T13:01:17.404Z,99570.42
2017-10-05T13:04:19.592Z,99578.87
2017-10-05T13:07:20.999Z,99597.91
2017-10-05T13:10:22.349Z,99586.93
2017-10-05T13:13:23.799Z,99598.56
2017-10-05T13:16:25.211Z,99605.89
2017-10-05T13:19:26.661Z,99612.67
2017-10-05T13:22:28.107Z,99629.64
2017-10-05T13:25:29.503Z,99632.20
2017-10-05T13:28:30.891Z,99639.59
2017-10-05T13:31:32.327Z,99637.05
2017-10-05T13:34:33.745Z,99645.32
2017-10-05T13:37:35.101Z,99651.00
2017-10-05T13:40:36.515Z,99660.36
2017-10-05T13:43:37.928Z,99648.23
2017-10-05T13:46:39.324Z,99654.75
2017-10-05T13:49:41.467Z,99653.05
2017-10-05T13:52:42.949Z,99653.28
2017-10-05T13:55:45.151Z,99671.81
2017-10-05T13:58:46.518Z,99666.30
2017-10-05T14:01:47.972Z,99672.01
2017-10-05T14:04:49.371Z,99676.01
2017-10-05T14:07:51.538Z,99681.91
2017-10-05T14:10:52.895Z,99693.12
2017-10-05T14:13:55.099Z,99704.52
2017-10-05T14:16:56.547Z,99698.09
2017-10-05T14:19:57.939Z,99699.70
2017-10-05T14:22:59.407Z,99702.25
2017-10-05T14:26:00.765Z,99697.33
2017-10-05T14:29:02.222Z,99716.50
2017-10-05T14:32:03.539Z,99703.03
2017-10-05T14:35:04.962Z,99699.17
2017-10-05T14:38:06.423Z,99708.41
2017-10-05T14:41:07.798Z,99717.61
2017-10-05T14:44:09.164Z,99718.12
2017-10-05T14:47:10.619Z,99719.35
2017-10-05T14:50:11.991Z,99716.68
2017-10-05T14:53:14.255Z,99735.41
2017-10-05T14:56:16.419Z,99728.42
2017-10-05T14:59:17.788Z,99741.47
2017-10-05T15:02:19.943Z,99749.94
2017-10-05T15:05:21.324Z,99747.14
2017-10-05T15:08:22.751Z,99757.47
2017-10-05T15:11:24.915Z,99747.77
2017-10-05T15:14:26.358Z,99759.15
2017-10-05T15:17:27.765Z,99761.73
2017-10-05T15:20:29.353Z,99755.08
2017-10-05T15:23:30.819Z,99770.83
2017-10-05T15:26:32.277Z,99777.63
2017-10-05T15:29:34.398Z,99773.40
2017-10-05T15:32:35.843Z,99791.41
2017-10-05T15:35:37.283Z,99800.20
2017-10-05T15:38:38.818Z,99809.09
2017-10-05T15:41:40.442Z,99818.06
2017-10-05T15:44:41.925Z,99821.27
2017-10-05T15:47:46.483Z,99815.19
2017-10-05T15:50:47.971Z,99814.30
2017-10-05T15:53:49.527Z,99830.70
2017-10-05T15:56:51.111Z,99824.99
2017-10-05T15:59:53.379Z,99815.55
2017-10-05T16:02:55.521Z,99824.70
2017-10-05T16:05:57.033Z,99825.95
2017-10-05T16:08:58.480Z,99835.08
2017-10-05T16:11:59.950Z,99840.46
2017-10-05T16:15:01.567Z,99844.05
2017-10-05T16:18:03.727Z,99856.23
2017-10-05T16:21:05.201Z,99847.98
2017-10-05T16:24:06.575Z,99858.34
2017-10-05T16:27:08.060Z,99857.21
2017-10-05T16:30:09.479Z,99871.67
2017-10-05T16:33:10.884Z,99875.19
2017-10-05T16:36:12.534Z,99873.13
2017-10-05T16:39:13.972Z,99876.91
2017-10-05T16:42:15.439Z,99870.03
2017-10-05T16:45:16.929Z,99889.19
2017-10-05T16:48:18.393Z,99891.55
2017-10-05T16:51:19.841Z,99897.19
2017-10-05T16:54:21.295Z,99900.30
2017-10-05T16:57:23.242Z,99909.68
2017-10-05T17:00:25.433Z,99909.75
2017-10-05T17:03:26.766Z,99918.38
2017-10-05T17:06:29.220Z,99918.79
2017-10-05T17:09:30.658Z,99922.12
2017-10-05T17:12:32.068Z,99921.41
2017-10-05T17:15:33.494Z,99945.66
2017-10-05T17:18:35.761Z,99949.17
2017-10-05T17:21:37.920Z,99953.84
2017-10-05T17:24:39.370Z,99961.48
2017-10-05T17:27:40.828Z,99967.66
2017-10-05T17:30:42.303Z,99976.68
2017-10-05T17:33:49.584Z,99987.33
2017-10-05T17:36:51.193Z,99987.27
2017-10-05T17:39:52.737Z,99997.09
2017-10-05T17:42:54.341Z,99988.09
2017-10-05T17:45:55.925Z,100000.64
2017-10-05T17:48:58.257Z,100010.81
2017-10-05T17:51:59.855Z,100000.01
2017-10-05T17:55:02.549Z,100003.67
2017-10-05T17:58:04.139Z,100016.09
2017-10-05T18:01:07.360Z,100017.13
2017-10-05T18:04:10.608Z,100008.89
2017-10-05T18:07:12.125Z,100001.91
2017-10-05T18:10:14.295Z,100012.39
2017-10-05T18:13:16.654Z,100019.47
2017-10-05T18:16:20.485Z,100017.34
2017-10-05T18:19:22.802Z,100015.27
2017-10-05T18:22:27.860Z,100028.66
2017-10-05T18:25:30.752Z,100026.84
2017-10-05T18:28:33.215Z,100032.17
2017-10-05T18:31:34.879Z,100031.48
2017-10-05T18:34:37.225Z,100039.89
2017-10-05T18:37:40.480Z,100037.39
2017-10-05T18:40:42.795Z,100039.86
2017-10-05T18:43:46.610Z,100039.29
2017-10-05T18:46:51.037Z,100053.04
2017-10-05T18:49:53.304Z,100052.45
2017-10-05T18:52:56.594Z,100049.97
2017-10-05T18:55:59.445Z,100047.77
2017-10-05T18:59:02.381Z,100051.15
2017-10-05T19:02:05.650Z,100042.58
2017-10-05T19:05:07.874Z,100052.27
2017-10-05T19:08:09.567Z,100051.76
2017-10-05T19:11:11.297Z,100051.20
2017-10-05T19:14:15.442Z,100058.19
2017-10-05T19:17:17.452Z,100062.10
2017-10-05T19:20:21.636Z,100048.23
2017-10-05T19:23:24.323Z,100065.63
2017-10-05T19:26:25.874Z,100068.13
2017-10-05T19:29:27.273Z,100069.41
2017-10-05T19:32:28.711Z,100076.69
2017-10-05T19:35:31.798Z,100075.03
2017-10-05T19:38:36.324Z,100082.16
2017-10-05T19:41:40.459Z,100081.67
2017-10-05T19:44:42.174Z,100087.03
2017-10-05T19:47:43.678Z,100092.16
2017-10-05T19:50:45.208Z,100084.39
2017-10-05T19:53:47.518Z,100088.70
2017-10-05T19:56:50.563Z,100087.87
2017-10-05T19:59:52.968Z,100085.02
2017-10-05T20:02:54.942Z,100087.92
2017-10-05T20:05:57.656Z,100094.60
2017-10-05T20:08:59.316Z,100089.75
2017-10-05T20:12:02.395Z,100094.41
2017-10-05T20:19:09.417Z,100096.28
2017-10-05T20:22:25.725Z,100106.95
2017-10-05T20:25:42.204Z,100111.13
2017-10-05T20:42:55.246Z,100116.11
2017-10-05T20:45:57.027Z,100110.91
2017-10-05T20:48:59.616Z,100112.49
2017-10-05T20:52:01.257Z,100114.44
2017-10-05T20:55:03.918Z,100109.69
2017-10-05T20:58:06.637Z,100131.36
2017-10-05T21:01:08.197Z,100122.76
2017-10-05T21:04:09.945Z,100119.36
2017-10-05T21:07:12.507Z,100112.83
2017-10-05T21:10:15.835Z,100111.42
2017-10-05T21:13:18.387Z,100124.87
2017-10-05T21:16:20.587Z,100113.86
2017-10-05T21:19:22.333Z,100116.23
2017-10-05T21:22:23.886Z,100122.87
2017-10-05T21:25:25.436Z,100122.73
2017-10-05T21:28:26.969Z,100109.28
2017-10-05T21:31:29.516Z,100118.59
2017-10-05T21:34:31.458Z,100110.47
2017-10-05T21:37:33.988Z,100124.67
2017-10-05T21:40:35.710Z,100106.47
2017-10-05T21:43:38.160Z,100126.28
2017-10-05T21:46:42.830Z,100120.77
2017-10-05T21:49:44.364Z,100122.13
2017-10-05T21:52:46.686Z,100109.58
2017-10-05T21:55:49.296Z,100124.78
2017-10-05T21:58:54.853Z,100129.86
2017-10-05T22:01:56.662Z,100122.09
2017-10-05T22:04:59.282Z,100129.88
2017-10-05T22:08:00.951Z,100121.91
2017-10-05T22:11:05.721Z,100134.36
2017-10-05T22:14:07.541Z,100132.84
2017-10-05T22:17:09.211Z,100131.83
2017-10-05T22:20:11.694Z,100129.94
2017-10-05T22:23:14.069Z,100123.99
2017-10-05T22:26:17.437Z,100127.55
2017-10-05T22:29:19.210Z,100123.20
2017-10-05T22:32:20.847Z,100119.33
2017-10-05T22:35:22.463Z,100116.70
2017-10-05T22:38:25.849Z,100124.86
2017-10-05T22:41:30.430Z,100121.65
2017-10-05T22:44:32.945Z,100122.79
2017-10-05T22:47:34.564Z,100122.23
2017-10-05T22:50:36.242Z,100118.05
2017-10-05T22:53:38.052Z,100115.35
2017-10-05T22:56:41.282Z,100116.55
2017-10-05T22:59:44.092Z,100121.95
2017-10-05T23:02:46.255Z,100119.88
2017-10-05T23:05:48.488Z,100122.13
2017-10-05T23:08:59.287Z,100117.48
2017-10-05T23:12:01.568Z,100115.22
2017-10-05T23:15:03.840Z,100114.64
2017-10-05T23:18:08.057Z,100119.72
2017-10-05T23:21:11.241Z,100125.66
2017-10-05T23:24:15.319Z,100119.86
2017-10-05T23:27:17.413Z,100122.01
2017-10-05T23:31:09.781Z,100121.30
2017-10-05T23:34:11.569Z,100112.44
2017-10-05T23:37:13.808Z,100114.15
2017-10-05T23:40:17.127Z,100099.17
2017-10-05T23:43:18.807Z,100104.00
2017-10-05T23:46:20.481Z,100109.78
2017-10-05T23:49:22.153Z,100102.20
2017-10-05T23:52:28.351Z,100107.05
2017-10-05T23:55:30.921Z,100095.02
2017-10-05T23:58:32.549Z,100102.25
